createdAt,value
2022-09-25T00:01:51.400Z,5.10
2022-09-25T00:04:19.443Z,5.35
2022-09-25T00:06:47.583Z,5.18
2022-09-25T00:09:14.825Z,5.07
2022-09-25T00:11:41.208Z,4.70
2022-09-25T00:14:07.598Z,6.35
2022-09-25T00:16:34.051Z,5.25
2022-09-25T00:19:19.828Z,4.88
2022-09-25T00:21:52.902Z,5.72
2022-09-25T00:24:20.060Z,6.28
2022-09-25T00:26:46.457Z,5.88
2022-09-25T00:29:18.031Z,5.70
2022-09-25T00:31:44.611Z,5.75
2022-09-25T00:34:11.395Z,5.78
2022-09-25T00:36:37.971Z,5.05
2022-09-25T00:39:04.730Z,5.57
2022-09-25T00:41:31.974Z,5.60
2022-09-25T00:44:00.133Z,5.35
2022-09-25T00:46:37.125Z,5.38
2022-09-25T00:49:09.999Z,5.60
2022-09-25T00:51:42.911Z,5.10
2022-09-25T00:54:19.384Z,5.32
2022-09-25T00:56:48.184Z,4.82
2022-09-25T00:59:17.655Z,5.20
2022-09-25T01:01:44.724Z,5.07
2022-09-25T01:04:12.931Z,5.10
2022-09-25T01:06:39.575Z,5.30
2022-09-25T01:09:06.153Z,4.75
2022-09-25T01:11:32.681Z,4.60
2022-09-25T01:14:02.572Z,5.43
2022-09-25T01:16:44.727Z,5.20
2022-09-25T01:19:20.236Z,5.50
2022-09-25T01:22:35.606Z,5.22
2022-09-25T01:25:11.893Z,5.30
2022-09-25T01:27:43.276Z,5.10
2022-09-25T01:30:15.547Z,5.70
2022-09-25T01:33:01.529Z,3.92
2022-09-25T01:36:00.035Z,4.55
2022-09-25T01:39:05.875Z,4.65
2022-09-25T01:41:45.126Z,4.70
2022-09-25T01:44:15.890Z,4.25
2022-09-25T01:46:46.870Z,4.72
2022-09-25T01:49:18.951Z,5.13
2022-09-25T01:51:52.335Z,4.85
2022-09-25T01:54:22.889Z,4.45
2022-09-25T01:56:54.416Z,4.78
2022-09-25T01:59:33.575Z,4.57
2022-09-25T02:02:01.652Z,4.60
2022-09-25T02:04:47.213Z,5.00
2022-09-25T02:07:18.281Z,4.05
2022-09-25T02:09:48.966Z,4.35
2022-09-25T02:12:19.395Z,4.65
2022-09-25T02:14:51.709Z,4.30
2022-09-25T02:17:42.727Z,5.13
2022-09-25T02:20:28.283Z,5.22
2022-09-25T02:22:55.376Z,5.63
2022-09-25T02:25:37.616Z,5.75
2022-09-25T02:28:04.216Z,5.60
2022-09-25T02:30:30.735Z,6.07
2022-09-25T02:32:58.103Z,5.57
2022-09-25T02:35:25.930Z,5.45
2022-09-25T02:37:53.617Z,5.28
2022-09-25T02:40:20.807Z,5.60
2022-09-25T02:42:52.315Z,5.50
2022-09-25T02:45:55.010Z,5.75
2022-09-25T02:48:47.618Z,5.55
2022-09-25T02:51:26.808Z,5.45
2022-09-25T02:54:02.153Z,5.78
2022-09-25T02:56:45.077Z,5.40
2022-09-25T02:59:18.682Z,5.05
2022-09-25T03:01:46.850Z,4.97
2022-09-25T03:04:14.655Z,4.63
2022-09-25T03:06:41.591Z,5.47
2022-09-25T03:09:09.428Z,5.07
2022-09-25T03:11:41.468Z,6.03
2022-09-25T03:14:08.129Z,5.68
2022-09-25T03:16:49.957Z,5.95
2022-09-25T03:19:16.513Z,5.55
2022-09-25T03:21:43.016Z,4.70
2022-09-25T03:24:09.638Z,4.70
2022-09-25T03:26:36.341Z,5.28
2022-09-25T03:29:03.156Z,4.45
2022-09-25T03:31:30.225Z,5.53
2022-09-25T03:33:56.984Z,5.25
2022-09-25T03:36:25.398Z,5.90
2022-09-25T03:38:57.797Z,5.35
2022-09-25T03:41:26.751Z,5.68
2022-09-25T03:43:53.826Z,5.55
2022-09-25T03:46:22.774Z,6.47
2022-09-25T03:48:49.632Z,5.90
2022-09-25T03:51:16.045Z,5.78
2022-09-25T03:53:42.432Z,5.70
2022-09-25T03:56:12.517Z,6.15
2022-09-25T03:58:39.355Z,6.10
2022-09-25T04:01:06.682Z,6.32
2022-09-25T04:03:34.324Z,6.47
2022-09-25T04:06:04.844Z,6.22
2022-09-25T04:08:32.655Z,6.15
2022-09-25T04:10:59.771Z,6.63
2022-09-25T04:13:34.347Z,6.47
2022-09-25T04:16:01.823Z,6.93
2022-09-25T04:18:31.466Z,6.22
2022-09-25T04:20:59.080Z,6.47
2022-09-25T04:23:25.614Z,6.97
2022-09-25T04:25:52.326Z,6.95
2022-09-25T04:28:18.745Z,6.45
2022-09-25T04:30:45.242Z,6.07
2022-09-25T04:33:30.274Z,5.68
2022-09-25T04:35:56.814Z,6.72
2022-09-25T04:38:23.267Z,6.80
2022-09-25T04:40:49.712Z,6.22
2022-09-25T04:43:16.146Z,6.97
2022-09-25T04:45:42.679Z,6.97
2022-09-25T04:48:09.226Z,6.10
2022-09-25T04:50:35.894Z,6.53
2022-09-25T04:53:02.945Z,7.22
2022-09-25T04:55:29.352Z,7.80
2022-09-25T04:57:59.289Z,6.78
2022-09-25T05:00:29.373Z,7.85
2022-09-25T05:02:55.888Z,7.10
2022-09-25T05:05:22.475Z,7.55
2022-09-25T05:07:56.797Z,7.68
2022-09-25T05:10:24.842Z,6.93
2022-09-25T05:12:55.546Z,7.00
2022-09-25T05:15:22.310Z,6.90
2022-09-25T05:17:48.972Z,7.45
2022-09-25T05:20:16.082Z,7.60
2022-09-25T05:22:42.514Z,7.25
2022-09-25T05:25:09.637Z,7.60
2022-09-25T05:27:36.025Z,7.80
2022-09-25T05:30:02.480Z,7.35
2022-09-25T05:32:29.347Z,7.47
2022-09-25T05:34:55.737Z,7.80
2022-09-25T05:37:22.163Z,8.10
2022-09-25T05:39:48.730Z,8.75
2022-09-25T05:42:18.345Z,8.32
2022-09-25T05:44:44.763Z,8.52
2022-09-25T05:47:11.265Z,8.88
2022-09-25T05:49:37.777Z,8.85
2022-09-25T05:52:04.187Z,9.23
2022-09-25T05:54:30.635Z,9.50
2022-09-25T05:56:57.019Z,9.15
2022-09-25T05:59:23.425Z,9.73
2022-09-25T06:01:51.235Z,9.82
2022-09-25T06:04:17.685Z,9.63
2022-09-25T06:06:44.071Z,9.88
2022-09-25T06:09:10.496Z,9.80
2022-09-25T06:11:36.902Z,10.13
2022-09-25T06:14:03.883Z,10.93
2022-09-25T06:16:31.078Z,10.75
2022-09-25T06:18:57.574Z,11.13
2022-09-25T06:21:24.288Z,10.60
2022-09-25T06:23:50.728Z,11.32
2022-09-25T06:26:17.155Z,9.20
2022-09-25T06:28:43.563Z,10.35
2022-09-25T06:31:09.984Z,10.02
2022-09-25T06:33:36.448Z,11.00
2022-09-25T06:36:05.522Z,11.40
2022-09-25T06:38:34.316Z,11.27
2022-09-25T06:41:01.006Z,12.48
2022-09-25T06:43:28.117Z,11.60
2022-09-25T06:45:54.611Z,10.38
2022-09-25T06:48:22.092Z,10.65
2022-09-25T06:50:52.288Z,10.13
2022-09-25T06:53:19.946Z,9.25
2022-09-25T06:55:46.814Z,9.50
2022-09-25T06:58:23.551Z,9.50
2022-09-25T07:00:51.530Z,8.10
2022-09-25T07:03:36.518Z,8.05
2022-09-25T07:06:04.585Z,7.90
2022-09-25T07:08:31.101Z,7.80
2022-09-25T07:10:58.509Z,6.47
2022-09-25T07:13:30.257Z,6.25
2022-09-25T07:15:58.369Z,6.47
2022-09-25T07:18:25.878Z,6.38
2022-09-25T07:20:52.893Z,7.00
2022-09-25T07:23:21.067Z,7.53
2022-09-25T07:25:48.115Z,6.05
2022-09-25T07:28:15.879Z,6.63
2022-09-25T07:30:42.642Z,5.82
2022-09-25T07:33:09.496Z,6.40
2022-09-25T07:35:36.990Z,5.97
2022-09-25T07:38:04.912Z,6.35
2022-09-25T07:40:35.187Z,6.50
2022-09-25T07:43:02.570Z,6.47
2022-09-25T07:45:29.442Z,6.20
2022-09-25T07:48:00.733Z,7.07
2022-09-25T07:50:31.329Z,6.20
2022-09-25T07:52:58.265Z,6.80
2022-09-25T07:55:24.836Z,7.18
2022-09-25T07:57:52.055Z,6.43
2022-09-25T08:00:18.751Z,6.65
2022-09-25T08:02:45.256Z,6.78
2022-09-25T08:05:11.740Z,6.75
2022-09-25T08:07:38.471Z,6.85
2022-09-25T08:10:05.431Z,6.40
2022-09-25T08:12:31.835Z,5.97
2022-09-25T08:14:58.293Z,4.63
2022-09-25T08:17:24.691Z,4.57
2022-09-25T08:19:51.091Z,5.05
2022-09-25T08:22:17.495Z,3.88
2022-09-25T08:24:43.970Z,3.97
2022-09-25T08:27:10.385Z,3.60
2022-09-25T08:29:36.784Z,3.85
2022-09-25T08:32:03.181Z,4.18
2022-09-25T08:34:40.586Z,4.15
2022-09-25T08:37:10.070Z,4.20
2022-09-25T08:39:36.727Z,3.85
2022-09-25T08:42:03.655Z,4.55
2022-09-25T08:45:09.106Z,3.80
2022-09-25T08:47:53.190Z,3.70
2022-09-25T08:50:22.523Z,4.07
2022-09-25T08:52:52.230Z,4.80
2022-09-25T08:55:48.652Z,5.72
2022-09-25T08:58:22.119Z,5.95
2022-09-25T09:00:49.074Z,5.05
2022-09-25T09:03:17.001Z,5.82
2022-09-25T09:05:51.444Z,5.90
2022-09-25T09:08:20.524Z,6.63
2022-09-25T09:10:53.093Z,6.65
2022-09-25T09:13:28.705Z,5.90
2022-09-25T09:16:01.340Z,5.53
2022-09-25T09:18:35.526Z,6.10
2022-09-25T09:21:20.418Z,6.75
2022-09-25T09:24:05.957Z,6.30
2022-09-25T09:26:49.837Z,6.72
2022-09-25T09:29:44.463Z,6.82
2022-09-25T09:32:37.814Z,5.97
2022-09-25T09:35:10.417Z,5.88
2022-09-25T09:37:53.943Z,6.47
2022-09-25T09:40:34.057Z,7.43
2022-09-25T09:43:14.633Z,6.53
2022-09-25T09:45:46.587Z,7.55
2022-09-25T09:48:35.980Z,7.10
2022-09-25T09:51:21.715Z,7.63
2022-09-25T09:53:58.885Z,7.57
2022-09-25T09:56:28.939Z,7.15
2022-09-25T09:58:58.524Z,6.90
2022-09-25T10:01:43.017Z,6.38
2022-09-25T10:04:15.922Z,6.60
2022-09-25T10:06:46.823Z,6.28
2022-09-25T10:09:15.278Z,7.65
2022-09-25T10:11:43.762Z,7.70
2022-09-25T10:14:16.516Z,7.55
2022-09-25T10:16:42.974Z,8.07
2022-09-25T10:19:09.262Z,8.65
2022-09-25T10:21:40.258Z,8.48
2022-09-25T10:24:07.157Z,9.27
2022-09-25T10:26:37.846Z,9.63
2022-09-25T10:29:27.650Z,9.27
2022-09-25T10:31:59.409Z,9.95
2022-09-25T10:34:28.153Z,8.75
2022-09-25T10:36:54.592Z,8.68
2022-09-25T10:39:50.749Z,8.32
2022-09-25T10:43:02.703Z,9.23
2022-09-25T10:45:30.950Z,8.18
2022-09-25T10:48:21.014Z,8.55
2022-09-25T10:51:06.781Z,8.60
2022-09-25T10:53:33.204Z,8.27
2022-09-25T10:56:06.559Z,7.78
2022-09-25T10:58:45.331Z,7.78
2022-09-25T11:01:13.722Z,7.60
2022-09-25T11:03:47.437Z,6.90
2022-09-25T11:06:23.632Z,6.85
2022-09-25T11:08:56.281Z,6.88
2022-09-25T11:11:26.826Z,7.07
2022-09-25T11:14:04.493Z,7.03
2022-09-25T11:16:54.308Z,6.95
2022-09-25T11:19:32.572Z,6.82
2022-09-25T11:22:19.293Z,6.93
2022-09-25T11:25:34.136Z,6.40
2022-09-25T11:28:23.567Z,6.57
2022-09-25T11:30:56.805Z,7.20
2022-09-25T11:33:42.159Z,6.95
2022-09-25T11:36:32.861Z,6.90
2022-09-25T11:39:26.003Z,6.88
2022-09-25T11:42:18.781Z,5.68
2022-09-25T11:45:08.706Z,5.20
2022-09-25T11:47:49.392Z,5.03
2022-09-25T11:50:17.006Z,5.13
2022-09-25T11:53:08.701Z,5.50
2022-09-25T11:55:52.642Z,5.35
2022-09-25T11:58:34.245Z,5.32
2022-09-25T12:01:14.943Z,5.60
2022-09-25T12:03:51.102Z,5.75
2022-09-25T12:06:34.948Z,4.72
2022-09-25T12:09:17.054Z,5.57
2022-09-25T12:11:58.890Z,5.22
2022-09-25T12:14:32.607Z,5.05
2022-09-25T12:17:09.980Z,4.50
2022-09-25T12:19:48.007Z,5.07
2022-09-25T12:22:33.382Z,4.95
2022-09-25T12:25:21.525Z,4.95
2022-09-25T12:28:19.332Z,5.18
2022-09-25T12:30:57.099Z,5.25
2022-09-25T12:33:43.252Z,5.43
2022-09-25T12:36:15.066Z,4.80
2022-09-25T12:38:48.873Z,4.75
2022-09-25T12:41:28.195Z,4.35
2022-09-25T12:44:01.481Z,5.07
2022-09-25T12:46:32.392Z,4.88
2022-09-25T12:49:02.650Z,4.35
2022-09-25T12:51:34.965Z,4.05
2022-09-25T12:54:06.988Z,4.25
2022-09-25T12:56:42.520Z,3.65
2022-09-25T12:59:42.569Z,4.05
2022-09-25T13:02:39.969Z,3.75
2022-09-25T13:05:35.788Z,3.75
2022-09-25T13:08:20.281Z,4.07
2022-09-25T13:10:53.974Z,3.30
2022-09-25T13:13:25.961Z,3.47
2022-09-25T13:15:55.977Z,3.33
2022-09-25T13:18:24.502Z,3.17
2022-09-25T13:20:56.022Z,3.45
2022-09-25T13:23:32.542Z,3.30
2022-09-25T13:26:02.375Z,3.08
2022-09-25T13:28:38.005Z,2.97
2022-09-25T13:31:09.920Z,3.00
2022-09-25T13:34:04.002Z,2.88
2022-09-25T13:36:47.633Z,2.92
2022-09-25T13:39:49.521Z,2.83
2022-09-25T13:42:37.832Z,2.97
2022-09-25T13:45:14.174Z,2.47
2022-09-25T13:47:53.333Z,3.15
2022-09-25T13:50:24.803Z,3.00
2022-09-25T13:53:18.807Z,3.08
2022-09-25T13:55:48.094Z,3.15
2022-09-25T13:58:25.537Z,2.22
2022-09-25T14:00:58.511Z,2.45
2022-09-25T14:03:30.262Z,2.90
2022-09-25T14:05:56.968Z,2.35
2022-09-25T14:08:23.807Z,2.58
2022-09-25T14:10:52.001Z,2.80
2022-09-25T14:13:23.602Z,2.35
2022-09-25T14:15:51.109Z,2.72
2022-09-25T14:18:36.288Z,2.75
2022-09-25T14:21:03.547Z,3.00
2022-09-25T14:23:33.211Z,2.78
2022-09-25T14:26:07.846Z,3.50
2022-09-25T14:28:45.042Z,2.78
2022-09-25T14:31:29.720Z,2.70
2022-09-25T14:34:12.994Z,2.50
2022-09-25T14:37:01.317Z,2.50
2022-09-25T14:39:30.023Z,2.50
2022-09-25T14:42:23.344Z,2.55
2022-09-25T14:45:23.724Z,2.58
2022-09-25T14:47:52.507Z,2.63
2022-09-25T14:50:26.188Z,2.45
2022-09-25T14:52:57.193Z,3.17
2022-09-25T14:55:26.751Z,3.25
2022-09-25T14:57:53.532Z,3.67
2022-09-25T15:00:24.187Z,3.25
2022-09-25T15:02:52.942Z,2.95
2022-09-25T15:05:31.418Z,3.05
2022-09-25T15:07:59.744Z,2.97
2022-09-25T15:10:34.682Z,2.97
2022-09-25T15:13:13.846Z,3.63
2022-09-25T15:15:40.371Z,3.45
2022-09-25T15:18:12.267Z,2.50
2022-09-25T15:20:45.246Z,2.50
2022-09-25T15:23:18.684Z,2.67
2022-09-25T15:25:48.406Z,2.40
2022-09-25T15:28:18.025Z,2.90
2022-09-25T15:30:44.710Z,2.85
2022-09-25T15:33:26.551Z,3.05
2022-09-25T15:36:03.503Z,2.90
2022-09-25T15:38:33.941Z,2.80
2022-09-25T15:41:00.844Z,2.60
2022-09-25T15:43:27.639Z,2.53
2022-09-25T15:46:03.136Z,2.47
2022-09-25T15:48:35.960Z,2.10
2022-09-25T15:51:15.010Z,2.17
2022-09-25T15:53:44.211Z,2.50
2022-09-25T15:56:25.931Z,2.20
2022-09-25T15:59:04.901Z,2.00
2022-09-25T16:02:05.622Z,1.98
2022-09-25T16:04:58.377Z,2.22
2022-09-25T16:07:33.401Z,2.17
2022-09-25T16:10:08.981Z,1.85
2022-09-25T16:12:50.354Z,2.42
2022-09-25T16:15:30.082Z,2.30
2022-09-25T16:18:24.464Z,2.20
2022-09-25T16:20:57.985Z,2.70
2022-09-25T16:23:29.801Z,2.47
2022-09-25T16:25:58.375Z,2.55
2022-09-25T16:28:30.288Z,1.88
2022-09-25T16:31:00.527Z,2.10
2022-09-25T16:33:31.139Z,1.83
2022-09-25T16:36:14.608Z,2.05
2022-09-25T16:39:03.353Z,1.88
2022-09-25T16:41:30.128Z,2.00
2022-09-25T16:44:23.461Z,1.80
2022-09-25T16:46:52.807Z,2.30
2022-09-25T16:49:22.157Z,2.40
2022-09-25T16:51:49.939Z,2.38
2022-09-25T16:54:19.275Z,2.25
2022-09-25T16:56:47.689Z,1.75
2022-09-25T16:59:22.442Z,1.98
2022-09-25T17:02:20.313Z,2.22
2022-09-25T17:04:46.834Z,2.33
2022-09-25T17:07:14.953Z,2.13
2022-09-25T17:09:41.376Z,2.60
2022-09-25T17:12:16.934Z,2.22
2022-09-25T17:14:43.371Z,2.40
2022-09-25T17:17:10.240Z,2.20
2022-09-25T17:19:36.623Z,2.40
2022-09-25T17:22:03.031Z,2.55
2022-09-25T17:24:30.447Z,2.95
2022-09-25T17:26:56.851Z,2.80
2022-09-25T17:29:23.256Z,2.40
2022-09-25T17:31:49.964Z,2.40
2022-09-25T17:34:24.905Z,2.33
2022-09-25T17:36:51.800Z,2.40
2022-09-25T17:39:18.222Z,2.83
2022-09-25T17:41:44.691Z,2.90
2022-09-25T17:44:16.084Z,2.30
2022-09-25T17:46:42.790Z,2.60
2022-09-25T17:49:09.208Z,2.88
2022-09-25T17:51:35.697Z,2.33
2022-09-25T17:54:02.646Z,2.38
2022-09-25T17:56:34.039Z,2.78
2022-09-25T17:59:02.067Z,2.65
2022-09-25T18:01:33.185Z,2.85
2022-09-25T18:04:17.264Z,3.17
2022-09-25T18:06:43.740Z,2.60
2022-09-25T18:09:10.422Z,2.90
2022-09-25T18:11:36.889Z,2.63
2022-09-25T18:14:03.309Z,2.70
2022-09-25T18:16:31.586Z,2.42
2022-09-25T18:19:17.280Z,2.90
2022-09-25T18:22:02.321Z,2.30
2022-09-25T18:24:28.960Z,2.38
2022-09-25T18:26:57.841Z,2.10
2022-09-25T18:29:24.253Z,2.53
2022-09-25T18:31:50.789Z,2.13
2022-09-25T18:34:18.107Z,1.75
2022-09-25T18:36:44.740Z,1.88
2022-09-25T18:39:13.838Z,2.35
2022-09-25T18:41:43.927Z,1.83
2022-09-25T18:44:10.420Z,1.58
2022-09-25T18:46:39.682Z,1.70
2022-09-25T18:49:06.653Z,1.75
2022-09-25T18:51:33.962Z,1.70
2022-09-25T18:54:00.500Z,1.65
2022-09-25T18:56:28.228Z,1.85
2022-09-25T18:58:54.639Z,1.70
2022-09-25T19:01:21.576Z,1.60
2022-09-25T19:03:52.003Z,1.83
2022-09-25T19:06:18.803Z,1.50
2022-09-25T19:08:51.563Z,1.58
2022-09-25T19:11:17.993Z,1.63
2022-09-25T19:13:44.481Z,1.98
2022-09-25T19:16:10.983Z,1.65
2022-09-25T19:18:37.544Z,1.60
2022-09-25T19:21:04.179Z,1.70
2022-09-25T19:23:33.938Z,1.52
2022-09-25T19:26:02.692Z,1.75
2022-09-25T19:28:30.758Z,1.70
2022-09-25T19:31:21.492Z,1.75
2022-09-25T19:33:48.373Z,1.77
2022-09-25T19:36:19.075Z,1.48
2022-09-25T19:38:46.102Z,1.67
2022-09-25T19:41:14.869Z,1.85
2022-09-25T19:43:41.661Z,1.88
2022-09-25T19:46:08.435Z,1.63
2022-09-25T19:48:34.964Z,1.80
2022-09-25T19:51:06.440Z,1.85
2022-09-25T19:53:33.007Z,1.77
2022-09-25T19:55:59.427Z,1.73
2022-09-25T19:58:25.827Z,1.73
2022-09-25T20:00:53.388Z,2.20
2022-09-25T20:03:20.164Z,2.13
2022-09-25T20:05:49.242Z,2.00
2022-09-25T20:08:15.803Z,1.77
2022-09-25T20:10:42.220Z,2.17
2022-09-25T20:13:09.720Z,1.88
2022-09-25T20:15:36.159Z,1.60
2022-09-25T20:18:02.584Z,2.00
2022-09-25T20:20:29.539Z,1.60
2022-09-25T20:22:56.570Z,1.55
2022-09-25T20:25:23.515Z,1.17
2022-09-25T20:27:51.014Z,1.23
2022-09-25T20:30:18.781Z,1.00
2022-09-25T20:32:45.490Z,1.17
2022-09-25T20:35:12.069Z,1.20
2022-09-25T20:37:38.522Z,1.25
2022-09-25T20:40:05.355Z,1.17
2022-09-25T20:42:33.740Z,1.30
2022-09-25T20:45:00.152Z,1.23
2022-09-25T20:47:33.645Z,1.08
2022-09-25T20:50:00.817Z,0.90
2022-09-25T20:52:28.038Z,1.00
2022-09-25T20:54:54.430Z,1.10
2022-09-25T20:57:20.823Z,1.05
2022-09-25T20:59:47.232Z,1.00
2022-09-25T21:02:13.900Z,1.13
2022-09-25T21:04:40.371Z,1.00
2022-09-25T21:07:06.774Z,1.27
2022-09-25T21:09:33.208Z,1.10
2022-09-25T21:12:00.010Z,1.25
2022-09-25T21:14:28.065Z,0.85
2022-09-25T21:16:58.963Z,1.10
2022-09-25T21:19:25.951Z,1.20
2022-09-25T21:21:52.349Z,1.40
2022-09-25T21:24:20.737Z,1.20
2022-09-25T21:26:47.205Z,1.27
2022-09-25T21:29:15.682Z,1.05
2022-09-25T21:31:46.788Z,1.23
2022-09-25T21:34:16.093Z,0.98
2022-09-25T21:36:43.376Z,1.30
2022-09-25T21:39:09.969Z,1.30
2022-09-25T21:41:36.530Z,1.48
2022-09-25T21:44:06.654Z,1.58
2022-09-25T21:46:34.694Z,1.60
2022-09-25T21:49:04.431Z,1.48
2022-09-25T21:51:33.443Z,1.80
2022-09-25T21:54:01.013Z,1.50
2022-09-25T21:56:29.024Z,1.35
2022-09-25T21:58:56.401Z,1.30
2022-09-25T22:01:25.741Z,1.40
2022-09-25T22:03:55.223Z,1.60
2022-09-25T22:06:23.568Z,1.50
2022-09-25T22:08:52.074Z,1.38
2022-09-25T22:11:19.170Z,1.50
2022-09-25T22:13:46.760Z,1.60
2022-09-25T22:16:21.616Z,1.40
2022-09-25T22:18:54.320Z,1.23
2022-09-25T22:21:22.901Z,1.35
2022-09-25T22:23:49.787Z,1.48
2022-09-25T22:26:17.336Z,1.50
2022-09-25T22:28:43.994Z,1.27
2022-09-25T22:31:19.539Z,1.20
2022-09-25T22:33:46.480Z,1.17
2022-09-25T22:36:13.281Z,1.10
2022-09-25T22:38:40.338Z,1.40
2022-09-25T22:41:09.382Z,1.60
2022-09-25T22:43:36.563Z,1.27
2022-09-25T22:46:03.662Z,1.27
2022-09-25T22:48:30.527Z,1.30
2022-09-25T22:51:00.731Z,1.20
2022-09-25T22:53:29.212Z,1.42
2022-09-25T22:55:55.621Z,1.48
2022-09-25T22:58:22.298Z,0.90
2022-09-25T23:00:51.469Z,1.65
2022-09-25T23:03:18.720Z,1.55
2022-09-25T23:05:45.307Z,1.70
2022-09-25T23:08:11.852Z,1.80
2022-09-25T23:11:02.549Z,1.50
2022-09-25T23:13:25.045Z,1.70
2022-09-25T23:15:51.821Z,1.75
2022-09-25T23:18:18.215Z,1.40
2022-09-25T23:20:44.590Z,1.30
2022-09-25T23:23:11.013Z,1.42
2022-09-25T23:25:37.396Z,1.77
2022-09-25T23:28:03.931Z,1.92
2022-09-25T23:30:31.844Z,1.55
2022-09-25T23:32:58.562Z,1.45
2022-09-25T23:35:25.000Z,1.98
2022-09-25T23:37:51.892Z,1.80
2022-09-25T23:40:18.672Z,1.92
2022-09-25T23:42:45.153Z,2.10
2022-09-25T23:45:11.780Z,1.95
2022-09-25T23:47:38.211Z,2.50
2022-09-25T23:50:05.147Z,1.77
2022-09-25T23:52:31.746Z,2.05
2022-09-25T23:54:59.301Z,1.88
2022-09-25T23:57:25.705Z,1.92
2022-09-25T23:59:52.132Z,2.00
